createdAt,value
2023-02-02T00:01:28.307Z,100531.84
2023-02-02T00:03:57.266Z,100534.75
2023-02-02T00:06:28.879Z,100530.19
2023-02-02T00:08:58.166Z,100530.44
2023-02-02T00:11:27.126Z,100527.63
2023-02-02T00:13:55.763Z,100513.94
2023-02-02T00:16:41.688Z,100534.38
2023-02-02T00:19:11.781Z,100532.63
2023-02-02T00:21:41.675Z,100536.66
2023-02-02T00:24:11.548Z,100532.19
2023-02-02T00:26:41.360Z,100539.19
2023-02-02T00:29:15.353Z,100534.06
2023-02-02T00:31:43.898Z,100541.00
2023-02-02T00:34:13.028Z,100554.63
2023-02-02T00:36:43.327Z,100550.69
2023-02-02T00:39:12.131Z,100543.81
2023-02-02T00:41:40.224Z,100544.47
2023-02-02T00:44:25.822Z,100541.97
2023-02-02T00:46:53.846Z,100537.41
2023-02-02T00:49:22.227Z,100536.13
2023-02-02T00:51:51.861Z,100527.69
2023-02-02T00:54:20.138Z,100532.69
2023-02-02T00:56:48.335Z,100520.94
2023-02-02T00:59:16.686Z,100523.72
2023-02-02T01:01:44.859Z,100527.28
2023-02-02T01:04:13.037Z,100517.72
2023-02-02T01:06:42.332Z,100513.59
2023-02-02T01:09:12.047Z,100503.53
2023-02-02T01:11:40.149Z,100506.81
2023-02-02T01:14:08.423Z,100503.97
2023-02-02T01:16:36.707Z,100506.13
2023-02-02T01:19:04.964Z,100509.03
2023-02-02T01:21:33.265Z,100514.16
2023-02-02T01:24:01.637Z,100501.94
2023-02-02T01:26:31.202Z,100500.59
2023-02-02T01:28:59.819Z,100505.50
2023-02-02T01:31:27.930Z,100500.34
2023-02-02T01:33:56.020Z,100491.06
2023-02-02T01:36:25.970Z,100496.19
2023-02-02T01:38:54.034Z,100499.63
2023-02-02T01:41:24.196Z,100503.94
2023-02-02T01:43:57.360Z,100505.63
2023-02-02T01:46:27.578Z,100489.47
2023-02-02T01:49:01.310Z,100499.81
2023-02-02T01:51:38.424Z,100500.88
2023-02-02T01:54:10.253Z,100501.63
2023-02-02T01:56:43.638Z,100501.75
2023-02-02T01:59:16.632Z,100503.38
2023-02-02T02:01:46.171Z,100506.63
2023-02-02T02:04:14.497Z,100498.81
2023-02-02T02:06:43.102Z,100511.50
2023-02-02T02:09:11.469Z,100505.84
2023-02-02T02:11:39.532Z,100511.09
2023-02-02T02:14:29.384Z,100514.50
2023-02-02T02:17:20.175Z,100511.31
2023-02-02T02:20:46.905Z,100509.31
2023-02-02T02:24:03.806Z,100511.25
2023-02-02T02:26:52.948Z,100512.97
2023-02-02T02:29:45.780Z,100514.97
2023-02-02T02:32:28.929Z,100515.72
2023-02-02T02:35:04.371Z,100516.44
2023-02-02T02:37:43.540Z,100505.31
2023-02-02T02:40:20.095Z,100513.53
2023-02-02T02:42:53.225Z,100507.47
2023-02-02T02:45:23.036Z,100509.69
2023-02-02T02:47:53.749Z,100507.31
2023-02-02T02:50:22.049Z,100499.75
2023-02-02T02:52:55.364Z,100500.75
2023-02-02T02:55:25.640Z,100514.16
2023-02-02T02:58:11.428Z,100498.91
2023-02-02T03:01:02.579Z,100510.16
2023-02-02T03:03:45.144Z,100506.31
2023-02-02T03:06:21.955Z,100519.88
2023-02-02T03:08:56.779Z,100512.53
2023-02-02T03:11:25.034Z,100506.66
2023-02-02T03:13:53.542Z,100509.97
2023-02-02T03:16:21.637Z,100526.81
2023-02-02T03:18:51.248Z,100522.66
2023-02-02T03:21:19.319Z,100518.66
2023-02-02T03:23:47.387Z,100527.91
2023-02-02T03:26:15.496Z,100529.50
2023-02-02T03:28:43.754Z,100532.03
2023-02-02T03:31:12.075Z,100528.91
2023-02-02T03:33:40.579Z,100525.59
2023-02-02T03:36:11.638Z,100537.75
2023-02-02T03:38:39.882Z,100533.28
2023-02-02T03:41:08.181Z,100533.19
2023-02-02T03:43:36.352Z,100526.97
2023-02-02T03:46:08.358Z,100523.63
2023-02-02T03:48:37.869Z,100529.56
2023-02-02T03:51:13.048Z,100522.84
2023-02-02T03:53:44.492Z,100528.34
2023-02-02T03:56:13.000Z,100537.75
2023-02-02T03:58:41.215Z,100535.75
2023-02-02T04:01:13.019Z,100529.91
2023-02-02T04:03:41.129Z,100541.81
2023-02-02T04:06:10.898Z,100542.72
2023-02-02T04:08:39.673Z,100538.41
2023-02-02T04:11:11.372Z,100548.53
2023-02-02T04:13:40.088Z,100549.19
2023-02-02T04:16:08.749Z,100548.34
2023-02-02T04:18:38.324Z,100554.94
2023-02-02T04:21:07.667Z,100560.09
2023-02-02T04:23:38.006Z,100562.66
2023-02-02T04:26:07.147Z,100532.41
2023-02-02T04:28:35.641Z,100555.97
2023-02-02T04:31:03.777Z,100562.63
2023-02-02T04:33:31.959Z,100561.50
2023-02-02T04:36:00.190Z,100559.81
2023-02-02T04:38:28.380Z,100555.00
2023-02-02T04:40:58.088Z,100562.84
2023-02-02T04:43:26.213Z,100552.31
2023-02-02T04:45:57.515Z,100563.38
2023-02-02T04:48:26.131Z,100561.75
2023-02-02T04:51:01.731Z,100547.72
2023-02-02T04:53:30.260Z,100569.25
2023-02-02T04:56:05.916Z,100560.13
2023-02-02T04:58:34.448Z,100569.72
2023-02-02T05:01:02.588Z,100565.44
2023-02-02T05:03:30.815Z,100557.09
2023-02-02T05:06:07.012Z,100561.25
2023-02-02T05:08:35.236Z,100571.25
2023-02-02T05:11:09.674Z,100560.94
2023-02-02T05:13:38.227Z,100554.25
2023-02-02T05:16:07.857Z,100564.47
2023-02-02T05:18:36.167Z,100562.91
2023-02-02T05:21:05.116Z,100569.28
2023-02-02T05:23:33.293Z,100569.88
2023-02-02T05:26:01.433Z,100565.38
2023-02-02T05:28:31.355Z,100574.88
2023-02-02T05:30:59.591Z,100575.75
2023-02-02T05:33:27.826Z,100573.34
2023-02-02T05:35:56.240Z,100573.25
2023-02-02T05:38:24.326Z,100578.38
2023-02-02T05:40:52.565Z,100570.59
2023-02-02T05:43:21.644Z,100583.34
2023-02-02T05:45:51.564Z,100584.25
2023-02-02T05:48:19.787Z,100581.91
2023-02-02T05:50:56.450Z,100573.44
2023-02-02T05:53:25.544Z,100591.84
2023-02-02T05:55:53.631Z,100584.22
2023-02-02T05:58:21.798Z,100592.81
2023-02-02T06:00:51.871Z,100595.22
2023-02-02T06:03:20.255Z,100598.34
2023-02-02T06:05:49.227Z,100599.06
2023-02-02T06:08:17.300Z,100602.47
2023-02-02T06:10:45.730Z,100597.16
2023-02-02T06:13:13.997Z,100589.63
2023-02-02T06:15:43.443Z,100600.31
2023-02-02T06:18:13.076Z,100607.22
2023-02-02T06:20:41.138Z,100593.22
2023-02-02T06:23:10.179Z,100577.75
2023-02-02T06:25:38.295Z,100602.19
2023-02-02T06:28:06.482Z,100604.59
2023-02-02T06:30:34.650Z,100574.28
2023-02-02T06:33:02.930Z,100614.75
2023-02-02T06:35:32.449Z,100612.94
2023-02-02T06:38:00.478Z,100607.16
2023-02-02T06:40:29.338Z,100610.06
2023-02-02T06:42:58.483Z,100608.13
2023-02-02T06:45:27.661Z,100586.03
2023-02-02T06:47:56.583Z,100598.22
2023-02-02T06:50:25.231Z,100574.56
2023-02-02T06:52:55.587Z,100582.34
2023-02-02T06:55:24.469Z,100571.66
2023-02-02T06:57:58.069Z,100587.50
2023-02-02T07:00:29.446Z,100584.13
2023-02-02T07:02:58.268Z,100588.06
2023-02-02T07:05:29.325Z,100588.53
2023-02-02T07:08:00.604Z,100582.72
2023-02-02T07:11:12.695Z,100603.38
2023-02-02T07:13:17.312Z,100604.13
2023-02-02T07:15:46.077Z,100613.38
2023-02-02T07:18:14.705Z,100617.38
2023-02-02T07:20:43.299Z,100613.09
2023-02-02T07:23:13.385Z,100621.63
2023-02-02T07:25:43.576Z,100621.06
2023-02-02T07:28:12.488Z,100635.88
2023-02-02T07:30:41.216Z,100631.38
2023-02-02T07:33:10.034Z,100628.50
2023-02-02T07:35:38.753Z,100643.59
2023-02-02T07:38:07.250Z,100639.50
2023-02-02T07:40:37.415Z,100655.06
2023-02-02T07:43:06.099Z,100659.28
2023-02-02T07:45:34.517Z,100648.13
2023-02-02T07:48:03.268Z,100661.03
2023-02-02T07:50:32.572Z,100664.78
2023-02-02T07:53:01.263Z,100665.75
2023-02-02T07:55:30.688Z,100660.44
2023-02-02T07:58:01.910Z,100650.06
2023-02-02T08:00:30.653Z,100644.72
2023-02-02T08:02:59.147Z,100652.81
2023-02-02T08:05:27.928Z,100648.03
2023-02-02T08:07:58.935Z,100645.34
2023-02-02T08:10:27.619Z,100630.41
2023-02-02T08:12:56.184Z,100628.34
2023-02-02T08:15:26.618Z,100632.28
2023-02-02T08:17:55.184Z,100611.44
2023-02-02T08:20:23.605Z,100626.22
2023-02-02T08:22:52.191Z,100628.69
2023-02-02T08:25:20.741Z,100623.03
2023-02-02T08:27:49.054Z,100613.84
2023-02-02T08:30:17.537Z,100597.28
2023-02-02T08:32:47.780Z,100606.72
2023-02-02T08:35:16.457Z,100588.97
2023-02-02T08:37:44.825Z,100592.19
2023-02-02T08:40:13.934Z,100583.78
2023-02-02T08:42:43.672Z,100581.41
2023-02-02T08:46:02.591Z,100574.69
2023-02-02T08:48:11.713Z,100584.72
2023-02-02T08:50:41.079Z,100566.16
2023-02-02T08:53:17.799Z,100577.22
2023-02-02T08:55:45.922Z,100585.22
2023-02-02T09:00:56.879Z,100591.03
2023-02-02T09:03:27.103Z,100595.28
2023-02-02T09:05:55.635Z,100580.50
2023-02-02T09:11:21.558Z,100600.50
2023-02-02T09:13:51.881Z,100600.13
2023-02-02T09:16:21.972Z,100582.53
2023-02-02T09:18:51.805Z,100585.50
2023-02-02T09:21:21.393Z,100579.75
2023-02-02T09:26:36.430Z,100599.66
2023-02-02T09:29:07.336Z,100588.19
2023-02-02T09:31:38.657Z,100591.84
2023-02-02T09:34:10.770Z,100586.41
2023-02-02T09:36:40.357Z,100591.56
2023-02-02T09:39:10.035Z,100578.84
2023-02-02T09:55:35.808Z,100528.28
2023-02-02T10:01:39.970Z,100530.94
2023-02-02T10:53:31.034Z,100478.22
2023-02-02T11:02:20.285Z,100475.22
2023-02-02T12:03:55.984Z,100411.28
2023-02-02T12:16:25.848Z,100413.00
2023-02-02T12:25:38.432Z,100421.53
2023-02-02T12:31:36.147Z,100430.34
2023-02-02T12:34:19.850Z,100436.88
2023-02-02T12:37:07.573Z,100437.13
2023-02-02T12:39:48.295Z,100450.44
2023-02-02T12:42:33.880Z,100437.09
2023-02-02T12:45:31.552Z,100445.91
2023-02-02T12:48:24.406Z,100432.78
2023-02-02T12:51:07.719Z,100428.72
2023-02-02T12:54:34.781Z,100424.28
2023-02-02T12:56:52.096Z,100448.63
2023-02-02T12:59:37.220Z,100440.72
2023-02-02T13:02:18.121Z,100421.19
2023-02-02T13:04:57.597Z,100434.22
2023-02-02T13:07:36.486Z,100411.16
2023-02-02T13:10:21.789Z,100427.75
2023-02-02T13:12:55.677Z,100426.84
2023-02-02T13:15:30.687Z,100415.19
2023-02-02T13:18:01.897Z,100409.19
2023-02-02T13:20:39.000Z,100421.75
2023-02-02T13:23:12.796Z,100406.38
2023-02-02T13:25:49.130Z,100387.16
2023-02-02T13:28:32.461Z,100417.38
2023-02-02T13:31:18.393Z,100432.03
2023-02-02T13:33:51.442Z,100416.38
2023-02-02T13:36:28.667Z,100426.22
2023-02-02T13:39:00.074Z,100439.84
2023-02-02T13:41:30.788Z,100439.84
2023-02-02T13:44:07.940Z,100435.69
2023-02-02T13:46:43.122Z,100447.97
2023-02-02T13:49:16.341Z,100462.91
2023-02-02T13:51:53.898Z,100447.81
2023-02-02T13:54:55.841Z,100442.81
2023-02-02T13:58:04.754Z,100426.03
2023-02-02T14:00:37.740Z,100419.44
2023-02-02T14:03:07.588Z,100417.41
2023-02-02T14:05:40.003Z,100451.19
2023-02-02T14:08:17.862Z,100431.38
2023-02-02T14:10:58.957Z,100447.41
2023-02-02T14:13:48.324Z,100445.38
2023-02-02T14:16:25.226Z,100455.19
2023-02-02T14:18:55.767Z,100446.09
2023-02-02T14:21:59.972Z,100454.16
2023-02-02T14:24:46.316Z,100452.94
2023-02-02T14:28:03.479Z,100460.34
2023-02-02T14:30:34.866Z,100466.69
2023-02-02T14:33:40.605Z,100458.16
2023-02-02T14:36:17.900Z,100465.28
2023-02-02T14:39:18.967Z,100462.69
2023-02-02T14:42:28.394Z,100451.31
2023-02-02T14:45:17.677Z,100450.81
2023-02-02T14:47:53.730Z,100464.31
2023-02-02T14:50:46.285Z,100456.31
2023-02-02T14:53:23.255Z,100459.75
2023-02-02T14:55:58.490Z,100448.19
2023-02-02T14:58:31.694Z,100463.44
2023-02-02T15:01:08.624Z,100470.34
2023-02-02T15:03:48.225Z,100475.31
2023-02-02T15:06:29.958Z,100481.84
2023-02-02T15:09:36.848Z,100491.19
2023-02-02T15:12:39.829Z,100492.94
2023-02-02T15:15:16.415Z,100492.34
2023-02-02T15:18:07.975Z,100497.00
2023-02-02T15:20:43.168Z,100494.78
2023-02-02T15:23:28.160Z,100489.78
2023-02-02T15:26:02.186Z,100494.69
2023-02-02T15:28:39.802Z,100501.66
2023-02-02T15:31:17.650Z,100500.56
2023-02-02T15:33:48.743Z,100502.75
2023-02-02T15:36:21.868Z,100497.00
2023-02-02T15:38:55.059Z,100497.47
2023-02-02T15:41:25.790Z,100492.84
2023-02-02T15:43:54.134Z,100501.03
2023-02-02T15:46:26.763Z,100500.22
2023-02-02T15:49:33.880Z,100509.69
2023-02-02T15:52:11.561Z,100517.94
2023-02-02T15:54:51.909Z,100513.59
2023-02-02T15:57:28.875Z,100521.88
2023-02-02T15:59:57.054Z,100531.91
2023-02-02T16:02:33.106Z,100522.19
2023-02-02T16:05:01.243Z,100545.22
2023-02-02T16:07:31.856Z,100541.25
2023-02-02T16:10:06.890Z,100551.97
2023-02-02T16:12:36.500Z,100542.91
2023-02-02T16:15:05.321Z,100564.09
2023-02-02T16:17:35.882Z,100558.00
2023-02-02T16:20:10.112Z,100566.75
2023-02-02T16:22:40.305Z,100579.25
2023-02-02T16:25:16.824Z,100569.03
2023-02-02T16:27:49.706Z,100574.16
2023-02-02T16:30:28.948Z,100580.97
2023-02-02T16:32:57.079Z,100585.34
2023-02-02T16:35:33.198Z,100590.09
2023-02-02T16:38:25.530Z,100594.97
2023-02-02T16:41:05.550Z,100594.97
2023-02-02T16:43:34.424Z,100593.19
2023-02-02T16:46:07.468Z,100596.53
2023-02-02T16:48:37.049Z,100594.38
2023-02-02T16:51:11.730Z,100596.81
2023-02-02T16:53:39.899Z,100598.78
2023-02-02T16:56:11.607Z,100609.00
2023-02-02T16:58:45.867Z,100615.06
2023-02-02T17:01:16.331Z,100612.75
2023-02-02T17:03:52.722Z,100622.94
2023-02-02T17:06:41.706Z,100625.13
2023-02-02T17:09:34.852Z,100638.50
2023-02-02T17:12:14.314Z,100630.16
2023-02-02T17:14:53.401Z,100631.28
2023-02-02T17:17:22.013Z,100633.78
2023-02-02T17:19:51.047Z,100641.69
2023-02-02T17:22:22.117Z,100643.56
2023-02-02T17:24:52.593Z,100643.81
2023-02-02T17:27:28.286Z,100643.78
2023-02-02T17:29:57.868Z,100646.91
2023-02-02T17:32:27.063Z,100645.75
2023-02-02T17:34:55.700Z,100650.81
2023-02-02T17:37:24.164Z,100642.38
2023-02-02T17:39:52.507Z,100650.16
2023-02-02T17:42:27.682Z,100647.81
2023-02-02T17:44:55.824Z,100652.19
2023-02-02T17:47:23.916Z,100649.28
2023-02-02T17:49:52.048Z,100660.59
2023-02-02T17:52:20.447Z,100652.84
2023-02-02T17:54:48.946Z,100654.72
2023-02-02T17:57:17.018Z,100653.00
2023-02-02T17:59:46.904Z,100651.22
2023-02-02T18:02:17.020Z,100643.72
2023-02-02T18:04:45.774Z,100653.13
2023-02-02T18:07:14.222Z,100651.47
2023-02-02T18:09:42.608Z,100654.22
2023-02-02T18:12:11.100Z,100666.84
2023-02-02T18:14:39.603Z,100669.34
2023-02-02T18:17:09.783Z,100656.72
2023-02-02T18:19:39.405Z,100666.34
2023-02-02T18:22:07.908Z,100626.69
2023-02-02T18:24:36.014Z,100673.81
2023-02-02T18:27:04.173Z,100669.34
2023-02-02T18:29:32.285Z,100668.00
2023-02-02T18:32:00.776Z,100673.16
2023-02-02T18:34:32.376Z,100676.47
2023-02-02T18:37:01.588Z,100669.72
2023-02-02T18:39:30.377Z,100679.06
2023-02-02T18:41:58.989Z,100677.44
2023-02-02T18:44:27.607Z,100673.97
2023-02-02T18:46:56.162Z,100674.84
2023-02-02T18:49:24.467Z,100686.22
2023-02-02T18:51:53.964Z,100681.00
2023-02-02T18:54:22.474Z,100687.00
2023-02-02T18:56:50.913Z,100687.63
2023-02-02T18:59:19.150Z,100679.25
2023-02-02T19:01:47.430Z,100687.91
2023-02-02T19:04:15.984Z,100685.84
2023-02-02T19:07:01.637Z,100666.56
2023-02-02T19:09:31.446Z,100671.69
2023-02-02T19:12:00.033Z,100692.91
2023-02-02T19:14:32.120Z,100689.66
2023-02-02T19:17:03.194Z,100673.44
2023-02-02T19:19:33.816Z,100683.44
2023-02-02T19:22:08.487Z,100674.31
2023-02-02T19:24:40.874Z,100683.66
2023-02-02T19:27:18.209Z,100691.31
2023-02-02T19:29:48.059Z,100685.94
2023-02-02T19:32:21.874Z,100675.91
2023-02-02T19:34:50.955Z,100689.69
2023-02-02T19:37:25.530Z,100677.34
2023-02-02T19:40:03.493Z,100683.97
2023-02-02T19:42:31.887Z,100694.88
2023-02-02T19:45:00.240Z,100695.50
2023-02-02T19:47:33.242Z,100701.59
2023-02-02T19:50:15.692Z,100700.13
2023-02-02T19:52:44.204Z,100707.81
2023-02-02T19:55:37.288Z,100714.44
2023-02-02T19:58:17.312Z,100713.66
2023-02-02T20:00:47.276Z,100709.34
2023-02-02T20:03:18.776Z,100710.94
2023-02-02T20:05:48.908Z,100702.44
2023-02-02T20:08:25.635Z,100701.09
2023-02-02T20:10:57.556Z,100704.41
2023-02-02T20:13:35.461Z,100707.81
2023-02-02T20:16:05.274Z,100701.56
2023-02-02T20:18:41.273Z,100701.81
2023-02-02T20:21:19.439Z,100709.56
2023-02-02T20:23:48.795Z,100709.56
2023-02-02T20:26:24.163Z,100718.34
2023-02-02T20:28:54.023Z,100711.69
2023-02-02T20:31:24.670Z,100724.41
2023-02-02T20:33:54.823Z,100731.97
2023-02-02T20:36:40.357Z,100737.91
2023-02-02T20:39:23.408Z,100736.34
2023-02-02T20:41:54.396Z,100727.84
2023-02-02T20:44:23.055Z,100727.97
2023-02-02T20:46:52.091Z,100724.41
2023-02-02T20:49:25.559Z,100730.31
2023-02-02T20:51:54.540Z,100733.91
2023-02-02T20:54:23.115Z,100744.16
2023-02-02T20:56:54.492Z,100751.22
2023-02-02T20:59:22.730Z,100751.97
2023-02-02T21:01:52.617Z,100756.13
2023-02-02T21:04:22.530Z,100754.63
2023-02-02T21:06:50.994Z,100750.91
2023-02-02T21:09:19.537Z,100759.94
2023-02-02T21:11:47.708Z,100765.16
2023-02-02T21:14:17.312Z,100766.97
2023-02-02T21:16:45.973Z,100770.28
2023-02-02T21:19:14.224Z,100767.81
2023-02-02T21:21:42.538Z,100759.19
2023-02-02T21:24:10.838Z,100745.09
2023-02-02T21:26:39.374Z,100769.56
2023-02-02T21:29:07.633Z,100766.94
2023-02-02T21:31:40.065Z,100771.13
2023-02-02T21:34:09.134Z,100756.75
2023-02-02T21:36:39.470Z,100765.19
2023-02-02T21:39:16.760Z,100770.31
2023-02-02T21:41:45.023Z,100768.88
2023-02-02T21:44:15.671Z,100773.13
2023-02-02T21:46:48.587Z,100779.00
2023-02-02T21:49:23.560Z,100767.16
2023-02-02T21:51:52.221Z,100762.19
2023-02-02T21:54:24.657Z,100775.63
2023-02-02T21:56:54.010Z,100769.72
2023-02-02T21:59:26.050Z,100780.91
2023-02-02T22:01:56.146Z,100781.59
2023-02-02T22:04:26.417Z,100788.63
2023-02-02T22:06:58.061Z,100792.03
2023-02-02T22:09:29.194Z,100790.38
2023-02-02T22:12:00.922Z,100786.97
2023-02-02T22:14:37.476Z,100793.94
2023-02-02T22:17:22.079Z,100791.28
2023-02-02T22:19:52.253Z,100803.94
2023-02-02T22:22:23.269Z,100776.94
2023-02-02T22:25:03.578Z,100792.13
2023-02-02T22:27:42.828Z,100795.50
2023-02-02T22:30:24.844Z,100779.41
2023-02-02T22:32:55.325Z,100772.66
2023-02-02T22:35:23.807Z,100780.84
2023-02-02T22:37:52.512Z,100780.91
2023-02-02T22:40:22.931Z,100777.72
2023-02-02T22:42:51.221Z,100772.59
2023-02-02T22:45:19.447Z,100776.03
2023-02-02T22:47:48.463Z,100767.72
2023-02-02T22:50:19.973Z,100751.69
2023-02-02T22:52:48.071Z,100767.63
2023-02-02T22:55:17.896Z,100757.41
2023-02-02T22:57:45.991Z,100774.19
2023-02-02T23:00:17.067Z,100780.25
2023-02-02T23:02:45.732Z,100779.34
2023-02-02T23:05:15.482Z,100788.00
2023-02-02T23:07:46.927Z,100787.25
2023-02-02T23:10:17.061Z,100794.13
2023-02-02T23:12:46.280Z,100784.59
2023-02-02T23:15:15.508Z,100785.34
2023-02-02T23:17:43.850Z,100760.94
2023-02-02T23:20:14.636Z,100787.16
2023-02-02T23:22:44.863Z,100780.53
2023-02-02T23:25:13.853Z,100776.44
2023-02-02T23:27:42.137Z,100792.66
2023-02-02T23:30:14.249Z,100789.09
2023-02-02T23:32:42.733Z,100784.59
2023-02-02T23:35:11.321Z,100783.78
2023-02-02T23:37:40.097Z,100776.22
2023-02-02T23:40:11.682Z,100788.19
2023-02-02T23:42:40.082Z,100783.25
2023-02-02T23:45:09.190Z,100782.34
2023-02-02T23:47:37.700Z,100768.72
2023-02-02T23:50:09.488Z,100778.78
2023-02-02T23:52:38.459Z,100783.88
2023-02-02T23:55:07.414Z,100764.44
2023-02-02T23:57:37.916Z,100780.72
